Time;durP1;ratioP1;P1;durP2;ratioP2;P2;SDS_P1;SDS_P2;PMS_P1;PMS_P2;Temp;Humidity;BMP_temperature;BMP_pressure;BME280_temperature;BME280_humidity;BME280_pressure;Samples;Min_cycle;Max_cycle;Signal;HPM_P1;HPM_P2
2022/07/27 00:02:09;;;;;;;5.97;4.60;;;;;;;29.84;28.65;100396.88;5016224;28;20467;-72
2022/07/27 00:04:35;;;;;;;5.83;4.90;;;;;;;29.83;28.79;100400.72;5024052;28;20442;-72
2022/07/27 00:07:00;;;;;;;7.73;4.73;;;;;;;29.86;28.73;100408.31;5027001;28;20402;-72
2022/07/27 00:09:26;;;;;;;5.87;5.00;;;;;;;29.87;29.03;100400.91;5026731;28;20394;-71
2022/07/27 00:11:51;;;;;;;8.00;4.97;;;;;;;29.90;29.05;100401.09;5026849;28;20828;-72
2022/07/27 00:14:17;;;;;;;7.23;4.47;;;;;;;29.88;29.02;100411.53;5026932;28;20396;-71
2022/07/27 00:16:42;;;;;;;6.27;4.50;;;;;;;29.83;29.07;100397.97;5026210;28;20438;-72
2022/07/27 00:21:00;;;;;;;8.45;4.95;;;;;;;29.85;29.20;100401.22;5083155;27;20416;-72
2022/07/27 00:24:03;;;;;;;5.53;4.43;;;;;;;29.88;29.53;100399.81;5097838;27;20406;-72
2022/07/27 00:26:28;;;;;;;9.60;4.93;;;;;;;29.87;29.54;100400.91;5086383;28;20402;-72
2022/07/27 00:28:54;;;;;;;13.83;4.93;;;;;;;29.87;30.13;100406.38;5066680;28;20380;-72
2022/07/27 00:31:19;;;;;;;10.43;4.63;;;;;;;29.88;30.13;100413.47;5067101;28;20400;-72
2022/07/27 00:33:45;;;;;;;10.20;4.67;;;;;;;29.89;30.31;100410.44;5066272;28;20396;-72
2022/07/27 00:36:11;;;;;;;8.73;4.87;;;;;;;29.87;30.52;100420.03;5067058;28;20445;-72
2022/07/27 00:38:37;;;;;;;6.32;4.53;;;;;;;29.86;30.46;100419.22;5066826;28;20387;-72
2022/07/27 00:41:03;;;;;;;8.47;4.80;;;;;;;29.83;30.67;100417.09;5066317;28;20384;-72
2022/07/27 00:43:28;;;;;;;7.45;4.90;;;;;;;29.86;30.61;100421.16;5066340;28;20403;-72
2022/07/27 00:45:54;;;;;;;9.33;4.50;;;;;;;29.83;29.72;100427.22;5066422;28;20406;-71
2022/07/27 00:48:19;;;;;;;11.73;4.60;;;;;;;29.76;29.89;100422.19;5066230;28;20471;-72
2022/07/27 00:50:46;;;;;;;7.77;5.10;;;;;;;29.67;29.98;100424.00;5066406;28;20383;-72
2022/07/27 00:53:12;;;;;;;10.82;4.97;;;;;;;29.63;30.09;100421.06;5065951;28;20375;-72
2022/07/27 00:56:48;;;;;;;5.85;5.05;;;;;;;29.60;30.07;100426.31;5080879;27;20433;-72
2022/07/27 01:01:34;;;;;;;8.70;4.80;;;;;;;29.57;30.44;100435.94;5085766;27;20828;-71
2022/07/27 01:04:00;;;;;;;9.57;5.20;;;;;;;29.53;30.66;100424.00;5064823;28;20400;-71
2022/07/27 01:06:25;;;;;;;7.47;4.90;;;;;;;29.49;30.84;100431.97;5064484;28;20467;-71
2022/07/27 01:08:51;;;;;;;9.10;5.00;;;;;;;29.48;30.79;100433.13;5066798;28;20747;-71
2022/07/27 01:11:17;;;;;;;11.35;5.50;;;;;;;29.46;30.95;100438.06;5066568;28;20449;-71
2022/07/27 01:13:43;;;;;;;12.32;5.18;;;;;;;29.47;31.00;100450.59;5066445;28;20384;-71
2022/07/27 01:16:08;;;;;;;9.48;4.93;;;;;;;29.45;31.18;100444.63;5066976;28;20445;-72
2022/07/27 01:20:27;;;;;;;9.30;5.00;;;;;;;29.40;31.63;100435.75;5098842;27;20826;-72
2022/07/27 01:22:52;;;;;;;9.33;5.10;;;;;;;29.39;31.65;100439.56;5073905;28;20404;-72
2022/07/27 01:25:18;;;;;;;9.43;5.00;;;;;;;29.35;32.18;100440.19;5085505;28;20465;-72
2022/07/27 01:27:43;;;;;;;12.87;5.63;;;;;;;29.38;32.43;100441.50;5076127;28;20410;-72
2022/07/27 01:30:29;;;;;;;11.90;5.07;;;;;;;29.36;32.79;100443.72;5080448;28;20389;-72
2022/07/27 01:33:02;;;;;;;9.87;4.87;;;;;;;29.34;32.81;100441.28;5066747;28;20461;-72
2022/07/27 01:35:28;;;;;;;8.55;4.88;;;;;;;29.29;33.06;100446.84;5085313;28;20397;-72
2022/07/27 01:37:54;;;;;;;9.60;4.60;;;;;;;29.28;33.29;100449.88;5086778;28;20435;-72
2022/07/27 01:40:20;;;;;;;13.03;5.30;;;;;;;29.23;33.36;100447.28;5083720;28;20827;-72
2022/07/27 01:43:45;;;;;;;8.10;5.07;;;;;;;29.20;33.93;100443.22;5075093;27;20975;-72
2022/07/27 01:46:11;;;;;;;9.25;5.10;;;;;;;29.17;33.97;100447.38;5078223;28;20510;-72
2022/07/27 01:48:36;;;;;;;12.10;5.33;;;;;;;29.16;34.20;100447.66;5080633;28;20851;-72
2022/07/27 01:51:02;;;;;;;15.73;5.50;;;;;;;29.13;34.38;100446.28;5064664;28;20388;-71
2022/07/27 01:53:27;;;;;;;15.90;5.83;;;;;;;29.10;34.69;100443.34;5066123;28;20744;-67
2022/07/27 01:55:53;;;;;;;11.70;5.50;;;;;;;29.06;34.54;100443.16;5066718;28;20386;-72
2022/07/27 01:58:18;;;;;;;9.37;5.30;;;;;;;29.02;35.05;100438.63;5066357;28;20375;-71
2022/07/27 02:00:44;;;;;;;7.80;5.38;;;;;;;29.02;35.45;100444.88;5065242;28;20406;-72
2022/07/27 02:03:10;;;;;;;10.48;5.15;;;;;;;28.98;35.47;100447.38;5065866;28;20518;-71
2022/07/27 02:05:37;;;;;;;13.48;5.40;;;;;;;28.94;35.44;100443.66;5066239;28;20454;-71
2022/07/27 02:08:04;;;;;;;7.80;5.47;;;;;;;28.94;35.63;100456.50;5066336;28;20475;-71
2022/07/27 02:10:30;;;;;;;10.50;5.20;;;;;;;28.93;35.61;100455.66;5066424;28;20380;-71
2022/07/27 02:12:56;;;;;;;9.53;5.07;;;;;;;28.90;35.84;100447.25;5065961;28;20820;-71
2022/07/27 02:15:24;;;;;;;10.18;5.40;;;;;;;28.87;35.90;100450.63;5066095;28;21915;-71
2022/07/27 02:17:50;;;;;;;11.48;5.47;;;;;;;28.77;36.05;100451.59;5066042;28;20376;-71
2022/07/27 02:20:59;;;;;;;11.88;5.72;;;;;;;28.75;36.15;100456.53;5084834;27;2059527;-72
2022/07/27 02:23:25;;;;;;;9.70;5.20;;;;;;;28.72;36.68;100459.84;5147382;27;20389;-72
2022/07/27 02:25:50;;;;;;;10.60;5.40;;;;;;;28.69;36.50;100458.53;5141538;27;20375;-72
2022/07/27 02:28:16;;;;;;;9.47;5.40;;;;;;;28.67;36.95;100459.97;5109478;28;20383;-72
2022/07/27 02:30:41;;;;;;;14.13;5.23;;;;;;;28.66;36.96;100463.78;5146507;27;20431;-72
2022/07/27 02:33:07;;;;;;;8.40;5.50;;;;;;;28.60;36.84;100461.13;5148173;27;20389;-72
2022/07/27 02:35:33;;;;;;;12.20;5.63;;;;;;;28.62;37.04;100460.84;5130838;27;20379;-72
2022/07/27 02:37:58;;;;;;;9.07;5.27;;;;;;;28.53;37.50;100459.88;5127295;28;20377;-72
2022/07/27 02:40:24;;;;;;;12.43;5.67;;;;;;;28.51;37.44;100468.34;5127193;28;20887;-72
2022/07/27 02:42:49;;;;;;;7.50;5.47;;;;;;;28.46;37.56;100460.22;5127257;27;20417;-72
2022/07/27 02:45:15;;;;;;;10.20;5.60;;;;;;;28.42;37.89;100467.41;5140080;27;20365;-72
2022/07/27 02:47:42;;;;;;;8.93;5.78;;;;;;;28.42;37.72;100475.56;5128698;27;20401;-72
2022/07/27 02:50:08;;;;;;;12.52;6.63;;;;;;;28.44;37.98;100476.09;5138305;27;20397;-72
2022/07/27 02:52:34;;;;;;;12.93;5.70;;;;;;;28.42;37.88;100478.28;5130815;27;21634;-72
2022/07/27 02:55:00;;;;;;;9.20;6.07;;;;;;;28.42;37.91;100478.28;5136579;27;20381;-72
2022/07/27 02:57:25;;;;;;;14.20;6.17;;;;;;;28.41;38.44;100490.28;5147032;27;20385;-72
2022/07/27 02:59:51;;;;;;;10.17;5.87;;;;;;;28.40;38.16;100488.69;5141597;27;20438;-72
2022/07/27 03:02:17;;;;;;;12.27;5.93;;;;;;;28.42;38.22;100484.56;5138908;27;20400;-72
2022/07/27 03:04:44;;;;;;;10.98;5.80;;;;;;;28.39;38.58;100492.50;5129015;27;20726;-72
2022/07/27 03:07:09;;;;;;;8.35;5.85;;;;;;;28.34;38.65;100495.31;5137264;27;20897;-72
2022/07/27 03:09:35;;;;;;;11.03;5.73;;;;;;;28.22;38.72;100491.13;5147357;27;20382;-72
2022/07/27 03:12:01;;;;;;;11.83;5.93;;;;;;;28.25;38.86;100503.31;5147631;27;20889;-72
2022/07/27 03:14:27;;;;;;;8.98;5.90;;;;;;;28.21;39.23;100503.09;5147619;27;20946;-72
2022/07/27 03:16:52;;;;;;;11.02;5.97;;;;;;;28.25;39.17;100507.97;5132418;27;20475;-72
2022/07/27 03:19:18;;;;;;;12.93;5.90;;;;;;;28.20;39.23;100497.97;5147286;27;20507;-72
2022/07/27 03:21:43;;;;;;;13.87;5.90;;;;;;;28.20;39.48;100506.94;5144691;27;20452;-72
2022/07/27 03:24:09;;;;;;;9.13;5.73;;;;;;;28.21;39.56;100500.38;5138056;27;20393;-72
2022/07/27 03:26:34;;;;;;;9.50;5.90;;;;;;;28.17;39.71;100506.72;5141080;27;20403;-72
2022/07/27 03:29:00;;;;;;;8.67;6.20;;;;;;;28.20;39.81;100504.22;5140493;27;20751;-72
2022/07/27 03:31:25;;;;;;;8.97;5.70;;;;;;;28.24;39.34;100506.38;5127392;27;20451;-72
2022/07/27 03:33:51;;;;;;;9.18;6.10;;;;;;;28.27;39.33;100506.59;5116110;27;20729;-72
2022/07/27 03:36:17;;;;;;;8.13;5.60;;;;;;;28.32;39.55;100508.44;5133242;27;20375;-72
2022/07/27 03:38:42;;;;;;;11.07;6.60;;;;;;;28.37;39.60;100508.34;5100527;27;20787;-72
2022/07/27 03:41:08;;;;;;;7.20;5.73;;;;;;;28.38;39.68;100510.78;5126071;27;20376;-72
2022/07/27 03:43:33;;;;;;;12.17;6.47;;;;;;;28.42;39.44;100509.09;5112689;28;20436;-72
2022/07/27 03:45:59;;;;;;;10.18;6.00;;;;;;;28.50;39.45;100506.81;5126872;27;20815;-72
2022/07/27 03:48:26;;;;;;;9.63;5.80;;;;;;;28.58;39.01;100508.91;5112754;28;20409;-72
2022/07/27 03:50:52;;;;;;;12.47;5.90;;;;;;;28.71;39.06;100515.53;5099290;28;20478;-72
2022/07/27 03:53:20;;;;;;;7.82;5.80;;;;;;;28.86;38.79;100512.53;5121918;27;20370;-72
2022/07/27 03:55:46;;;;;;;14.82;5.95;;;;;;;28.91;38.54;100517.91;5132725;27;20381;-72
2022/07/27 03:58:12;;;;;;;9.07;5.70;;;;;;;29.06;38.35;100516.84;5131028;27;20748;-72
2022/07/27 04:00:37;;;;;;;14.43;6.43;;;;;;;29.10;38.55;100515.16;5127546;27;20923;-72
2022/07/27 04:03:04;;;;;;;13.07;6.17;;;;;;;29.34;37.80;100519.69;5126397;27;20387;-72
2022/07/27 04:05:30;;;;;;;15.88;6.00;;;;;;;29.54;37.76;100526.69;5093875;28;20869;-72
2022/07/27 04:07:56;;;;;;;6.80;5.93;;;;;;;29.66;37.38;100521.53;5128387;27;20899;-71
2022/07/27 04:10:23;;;;;;;8.52;5.65;;;;;;;29.92;36.31;100521.84;5124547;27;20384;-70
2022/07/27 04:12:48;;;;;;;9.25;5.72;;;;;;;30.16;36.48;100520.00;5112096;27;20380;-73
2022/07/27 04:15:14;;;;;;;9.73;5.90;;;;;;;30.46;35.97;100522.06;5125981;27;20378;-72
2022/07/27 04:17:39;;;;;;;11.33;6.13;;;;;;;30.65;35.77;100515.63;5124530;27;20422;-73
2022/07/27 04:20:05;;;;;;;10.85;6.22;;;;;;;30.87;35.41;100517.56;5118451;27;20421;-72
2022/07/27 04:22:31;;;;;;;12.23;5.87;;;;;;;31.10;35.22;100525.78;5121423;27;20433;-73
2022/07/27 04:24:57;;;;;;;11.63;6.15;;;;;;;31.33;34.93;100515.59;5125841;27;20384;-72
2022/07/27 04:27:22;;;;;;;10.10;6.20;;;;;;;31.71;34.16;100515.13;5124593;27;20862;-72
2022/07/27 04:29:48;;;;;;;9.40;6.10;;;;;;;32.04;33.50;100523.81;5126764;27;20965;-71
2022/07/27 04:32:13;;;;;;;10.90;5.80;;;;;;;31.91;33.89;100520.03;5089448;28;20478;-72
2022/07/27 04:34:39;;;;;;;7.83;6.10;;;;;;;32.27;33.16;100529.16;5106389;27;20407;-72
2022/07/27 04:37:05;;;;;;;8.60;5.63;;;;;;;32.90;32.31;100526.88;5110988;28;20757;-72
2022/07/27 04:39:30;;;;;;;10.82;6.45;;;;;;;34.23;30.65;100524.13;5110931;27;20499;-72
2022/07/27 04:41:56;;;;;;;11.07;6.07;;;;;;;36.00;27.83;100520.81;5106021;27;20372;-72
2022/07/27 04:44:21;;;;;;;12.20;6.57;;;;;;;37.04;26.49;100512.75;5110345;28;20466;-71
2022/07/27 04:46:47;;;;;;;9.77;6.73;;;;;;;37.88;25.48;100519.16;5115383;27;20792;-70
2022/07/27 04:49:13;;;;;;;9.23;6.13;;;;;;;38.55;24.24;100509.91;5092649;28;20376;-72
2022/07/27 04:51:41;;;;;;;9.52;5.75;;;;;;;38.87;23.72;100521.63;5111037;28;20873;-72
2022/07/27 04:54:07;;;;;;;7.97;5.97;;;;;;;39.85;22.92;100526.81;5109896;28;20373;-71
2022/07/27 04:56:32;;;;;;;10.90;6.23;;;;;;;41.21;21.58;100524.91;5110144;28;20877;-70
2022/07/27 04:58:58;;;;;;;9.90;6.15;;;;;;;42.74;19.61;100526.19;5117411;27;20502;-70
2022/07/27 05:01:24;;;;;;;9.85;5.78;;;;;;;43.65;18.76;100522.25;5116901;27;20380;-68
2022/07/27 05:03:50;;;;;;;9.15;5.90;;;;;;;44.61;17.55;100521.16;5110174;28;20754;-71
2022/07/27 05:06:16;;;;;;;11.73;5.15;;;;;;;45.60;16.60;100522.78;5109866;28;20790;-71
2022/07/27 05:08:41;;;;;;;7.97;5.38;;;;;;;46.32;16.12;100527.59;5110281;28;20459;-68
2022/07/27 05:11:07;;;;;;;9.45;5.30;;;;;;;47.20;15.41;100525.88;5109943;28;20424;-69
2022/07/27 05:13:35;;;;;;;8.67;5.23;;;;;;;48.00;14.40;100518.41;5110157;28;20372;-70
2022/07/27 05:16:00;;;;;;;6.77;5.00;;;;;;;48.61;14.03;100521.91;5050711;28;20863;-69
2022/07/27 05:18:25;;;;;;;6.47;5.00;;;;;;;49.39;13.30;100528.88;5110023;28;21017;-68
2022/07/27 05:20:51;;;;;;;7.83;5.30;;;;;;;50.00;12.71;100525.16;5110209;28;20419;-68
2022/07/27 05:23:17;;;;;;;7.18;5.38;;;;;;;50.46;12.57;100523.00;5109574;28;20391;-69
2022/07/27 05:25:44;;;;;;;8.50;5.05;;;;;;;50.81;12.10;100522.31;5110042;28;20411;-67
2022/07/27 05:28:12;;;;;;;7.07;5.00;;;;;;;51.40;11.67;100531.22;5105723;28;20402;-68
2022/07/27 05:30:38;;;;;;;9.63;5.25;;;;;;;51.81;11.62;100529.34;5101804;28;20394;-69
2022/07/27 05:33:04;;;;;;;8.40;5.30;;;;;;;49.96;12.61;100532.94;5099625;27;20770;-66
2022/07/27 05:35:29;;;;;;;8.30;5.43;;;;;;;50.48;12.53;100543.09;5104481;27;20385;-69
2022/07/27 05:37:56;;;;;;;9.10;5.32;;;;;;;49.98;12.90;100536.09;5096095;28;20397;-68
2022/07/27 05:40:21;;;;;;;7.93;5.20;;;;;;;49.47;12.64;100544.34;5102186;28;20414;-68
2022/07/27 05:42:47;;;;;;;6.07;4.80;;;;;;;47.44;14.41;100543.53;5096576;28;20388;-68
2022/07/27 05:45:12;;;;;;;6.90;4.45;;;;;;;48.32;13.73;100538.63;5109545;28;20382;-68
2022/07/27 05:47:38;;;;;;;5.00;4.50;;;;;;;48.83;13.08;100544.72;5109464;28;20383;-67
2022/07/27 05:50:04;;;;;;;6.07;4.57;;;;;;;50.16;12.55;100540.47;5109672;28;20745;-67
2022/07/27 05:52:30;;;;;;;5.93;4.65;;;;;;;47.93;13.81;100540.22;5109163;28;20372;-67
2022/07/27 05:54:55;;;;;;;6.27;5.30;;;;;;;50.10;12.67;100538.16;5108987;27;20394;-67
2022/07/27 05:57:21;;;;;;;5.23;4.67;;;;;;;53.39;9.92;100528.69;5104844;28;20383;-68
2022/07/27 05:59:46;;;;;;;8.38;4.95;;;;;;;54.40;9.86;100530.53;5115524;27;20985;-69
2022/07/27 06:02:12;;;;;;;7.40;5.03;;;;;;;55.70;8.67;100529.63;5109257;28;20425;-69
2022/07/27 06:04:37;;;;;;;7.70;5.17;;;;;;;56.92;7.80;100519.91;5103765;28;20375;-67
2022/07/27 06:09:47;;;;;;;5.27;4.70;;;;;;;57.81;7.21;100516.47;5096071;28;20463;-68
2022/07/27 06:12:12;;;;;;;7.60;4.83;;;;;;;58.35;6.88;100515.88;5101302;28;20470;-68
2022/07/27 06:14:38;;;;;;;5.63;4.93;;;;;;;58.62;6.31;100524.31;5097944;27;20381;-67
2022/07/27 06:17:04;;;;;;;8.40;4.90;;;;;;;58.59;7.08;100525.34;5097938;28;20873;-68
2022/07/27 06:20:24;;;;;;;6.75;4.70;;;;;;;59.52;6.30;100521.00;5090048;27;20491;-68
2022/07/27 06:22:52;;;;;;;7.68;4.75;;;;;;;59.99;6.42;100522.06;5065748;28;20518;-67
2022/07/27 06:25:18;;;;;;;7.32;5.05;;;;;;;60.74;5.62;100512.00;5060434;28;20395;-65
2022/07/27 06:27:44;;;;;;;5.55;5.05;;;;;;;60.80;5.35;100516.41;5066114;28;20455;-67
2022/07/27 06:30:12;;;;;;;6.50;5.57;;;;;;;61.25;5.54;100512.50;5058998;28;20394;-66
2022/07/27 06:32:38;;;;;;;6.88;5.05;;;;;;;61.25;5.30;100498.19;5055846;28;20477;-67
2022/07/27 06:35:04;;;;;;;32.35;8.13;;;;;;;61.61;5.03;100503.94;5057573;28;20459;-67
2022/07/27 06:37:30;;;;;;;10.40;5.45;;;;;;;61.92;4.79;100510.44;5066431;28;20380;-67
2022/07/27 06:39:56;;;;;;;7.57;5.20;;;;;;;61.36;5.46;100495.25;5065877;28;20424;-67
2022/07/27 06:42:22;;;;;;;7.53;5.22;;;;;;;61.83;4.98;100490.66;5065916;28;20888;-68
2022/07/27 06:44:47;;;;;;;7.10;5.23;;;;;;;62.28;4.59;100496.75;5066286;28;20407;-67
2022/07/27 06:47:13;;;;;;;7.40;5.60;;;;;;;62.71;4.68;100485.81;5066135;28;20388;-67
2022/07/27 06:49:38;;;;;;;9.63;5.30;;;;;;;62.87;4.47;100487.66;5066063;28;20392;-67
2022/07/27 06:52:06;;;;;;;8.75;5.50;;;;;;;62.93;4.13;100487.59;5065803;28;20920;-67
2022/07/27 06:54:32;;;;;;;8.82;5.75;;;;;;;63.37;4.70;100489.00;5066282;28;20399;-67
2022/07/27 06:56:59;;;;;;;8.90;5.68;;;;;;;63.35;4.04;100479.41;5065556;28;20482;-67
2022/07/27 06:59:25;;;;;;;5.25;4.75;;;;;;;63.59;3.89;100484.22;5060770;28;20786;-68
2022/07/27 07:01:50;;;;;;;12.18;6.03;;;;;;;63.38;4.01;100475.44;5060720;28;20396;-67
2022/07/27 07:04:16;;;;;;;5.00;4.50;;;;;;;62.82;4.58;100466.31;5065059;28;20392;-65
2022/07/27 07:06:42;;;;;;;5.32;4.82;;;;;;;62.71;4.75;100468.56;5079720;28;20392;-68
2022/07/27 07:09:07;;;;;;;9.73;5.70;;;;;;;62.48;4.22;100458.16;5064998;28;20383;-66
2022/07/27 07:11:32;;;;;;;8.07;6.07;;;;;;;62.60;4.10;100461.66;5064405;28;20382;-68
2022/07/27 07:13:58;;;;;;;9.43;5.90;;;;;;;60.59;5.67;100460.75;5063140;28;20434;-68
2022/07/27 07:16:24;;;;;;;7.40;4.93;;;;;;;54.64;8.70;100470.22;5065269;28;20795;-68
2022/07/27 07:18:49;;;;;;;5.95;5.25;;;;;;;51.31;10.51;100478.28;5065135;28;20478;-68
2022/07/27 07:21:15;;;;;;;6.97;4.80;;;;;;;49.18;12.13;100481.13;5061011;28;20434;-67
2022/07/27 07:23:41;;;;;;;6.80;4.87;;;;;;;47.66;13.43;100479.34;5063929;28;20427;-68
2022/07/27 07:26:07;;;;;;;6.77;4.70;;;;;;;46.42;14.21;100487.38;5065382;28;21607;-68
2022/07/27 07:28:32;;;;;;;9.30;4.47;;;;;;;45.75;15.16;100487.03;5064987;28;20897;-68
2022/07/27 07:30:59;;;;;;;7.85;4.25;;;;;;;44.95;15.64;100503.75;5055090;28;20428;-68
2022/07/27 07:33:25;;;;;;;9.00;4.50;;;;;;;44.32;15.91;100497.31;5052005;28;20755;-67
2022/07/27 07:35:51;;;;;;;5.85;4.22;;;;;;;43.67;16.44;100495.53;5052237;28;20381;-67
2022/07/27 07:38:17;;;;;;;11.17;4.50;;;;;;;43.46;16.96;100501.94;5051546;28;20422;-67
2022/07/27 07:40:43;;;;;;;6.22;4.20;;;;;;;43.25;17.42;100494.38;5052140;28;20427;-68
2022/07/27 07:43:08;;;;;;;7.53;4.35;;;;;;;42.96;17.88;100496.38;5052096;28;20461;-67
2022/07/27 07:45:39;;;;;;;6.03;4.20;;;;;;;42.68;18.19;100495.13;5051899;28;20464;-67
2022/07/27 07:48:06;;;;;;;6.38;4.30;;;;;;;42.27;18.46;100497.38;5051878;28;20384;-67
2022/07/27 07:50:32;;;;;;;4.65;4.13;;;;;;;41.88;18.80;100492.41;5051643;28;20748;-67
2022/07/27 07:52:57;;;;;;;7.33;4.20;;;;;;;41.50;19.21;100495.34;5051779;28;20396;-68
2022/07/27 07:55:25;;;;;;;6.43;4.80;;;;;;;41.46;19.55;100497.31;5051536;28;20526;-68
2022/07/27 07:57:51;;;;;;;4.60;4.13;;;;;;;41.27;19.50;100498.34;5051558;28;20471;-68
2022/07/27 08:00:17;;;;;;;5.65;4.10;;;;;;;40.99;19.59;100508.03;5051466;28;20506;-67
2022/07/27 08:02:48;;;;;;;5.17;4.10;;;;;;;40.61;19.92;100503.66;5051136;28;20507;-68
2022/07/27 08:06:13;;;;;;;5.72;3.78;;;;;;;40.45;20.05;100515.00;5072628;27;21062;-67
2022/07/27 08:08:39;;;;;;;5.53;4.00;;;;;;;40.47;20.14;100513.41;5066541;28;20897;-67
2022/07/27 08:11:04;;;;;;;6.90;4.25;;;;;;;40.29;19.76;100502.06;5066414;28;20383;-65
2022/07/27 08:13:30;;;;;;;6.63;4.10;;;;;;;40.14;20.09;100506.66;5046753;28;20390;-68
2022/07/27 08:15:55;;;;;;;8.18;3.70;;;;;;;40.02;19.85;100511.66;5058792;28;20383;-68
2022/07/27 08:18:21;;;;;;;6.40;3.77;;;;;;;40.17;19.99;100505.09;5066378;28;20406;-68
2022/07/27 08:20:46;;;;;;;6.57;4.00;;;;;;;40.13;19.72;100507.03;5060959;28;20447;-68
2022/07/27 08:23:12;;;;;;;4.70;3.80;;;;;;;39.80;19.93;100504.94;5048217;28;20456;-68
2022/07/27 08:25:38;;;;;;;5.10;3.20;;;;;;;39.80;19.71;100513.28;5066479;28;20422;-68
2022/07/27 08:28:04;;;;;;;5.65;3.17;;;;;;;39.78;19.83;100510.91;5066360;28;20969;-68
2022/07/27 08:30:30;;;;;;;4.60;3.38;;;;;;;39.72;19.62;100509.59;5052008;28;20479;-68
2022/07/27 08:32:58;;;;;;;7.63;3.80;;;;;;;39.61;20.01;100511.44;5066630;28;20422;-68
2022/07/27 08:35:24;;;;;;;6.00;3.72;;;;;;;39.57;19.97;100509.41;5066042;28;20376;-68
2022/07/27 08:37:50;;;;;;;5.57;3.80;;;;;;;39.60;20.58;100510.63;5066269;28;20770;-69
2022/07/27 08:40:16;;;;;;;4.33;3.93;;;;;;;39.65;20.44;100507.53;5066212;28;20461;-69
2022/07/27 08:42:42;;;;;;;9.05;4.57;;;;;;;39.64;20.84;100497.59;5066224;28;20882;-68
2022/07/27 08:45:18;;;;;;;8.20;4.90;;;;;;;39.51;21.37;100498.97;5065877;28;20416;-67
2022/07/27 08:47:45;;;;;;;5.80;3.90;;;;;;;39.36;20.53;100498.75;5065787;28;20391;-67
2022/07/27 08:50:23;;;;;;;5.25;4.40;;;;;;;39.33;20.95;100493.16;5065678;28;20789;-67
2022/07/27 08:53:05;;;;;;;6.18;4.13;;;;;;;39.21;21.18;100493.34;5053647;28;20376;-67
2022/07/27 08:55:38;;;;;;;10.27;4.80;;;;;;;39.18;21.67;100487.38;5065744;28;20399;-68
2022/07/27 08:58:05;;;;;;;6.30;4.00;;;;;;;39.18;21.07;100492.91;5065541;28;20402;-68
2022/07/27 09:00:33;;;;;;;4.65;3.47;;;;;;;39.19;20.47;100491.72;5066058;28;20384;-67
2022/07/27 09:02:58;;;;;;;4.32;3.92;;;;;;;39.17;20.80;100501.59;5060440;28;20918;-67
2022/07/27 09:05:24;;;;;;;6.13;4.38;;;;;;;39.12;20.84;100488.84;5056386;28;20431;-67
2022/07/27 09:07:50;;;;;;;4.50;4.10;;;;;;;39.17;20.70;100485.75;5062243;28;20803;-68
2022/07/27 09:10:31;;;;;;;4.05;3.75;;;;;;;39.15;20.46;100488.09;5045413;28;20887;-68
2022/07/27 09:12:57;;;;;;;3.60;3.10;;;;;;;39.12;20.17;100483.28;5062159;28;20461;-68
2022/07/27 09:15:22;;;;;;;4.60;4.07;;;;;;;39.06;20.14;100490.34;5064687;28;20878;-68
2022/07/27 09:17:48;;;;;;;6.30;4.13;;;;;;;39.01;20.14;100490.59;5051300;28;20380;-67
2022/07/27 09:20:15;;;;;;;6.03;2.50;;;;;;;38.92;18.62;100481.75;5052396;28;20384;-68
2022/07/27 09:22:51;;;;;;;2.47;2.07;;;;;;;38.86;17.74;100492.34;5051831;28;20385;-68
2022/07/27 09:25:23;;;;;;;4.90;2.15;;;;;;;38.90;17.52;100484.09;5038498;28;20462;-68
2022/07/27 09:27:53;;;;;;;5.18;2.45;;;;;;;38.89;17.53;100499.09;5052041;28;20373;-68
2022/07/27 09:30:20;;;;;;;7.43;2.40;;;;;;;38.92;17.82;100487.28;5037784;28;20879;-69
2022/07/27 09:32:56;;;;;;;4.40;2.55;;;;;;;38.96;17.71;100488.94;5051953;28;20388;-67
2022/07/27 09:35:29;;;;;;;3.20;2.40;;;;;;;38.82;18.15;100491.44;5045992;28;20898;-68
2022/07/27 09:38:15;;;;;;;3.38;2.47;;;;;;;38.72;18.10;100483.75;5044418;28;20393;-68
2022/07/27 09:40:40;;;;;;;5.68;2.05;;;;;;;38.63;17.41;100484.00;5039127;28;21330;-67
2022/07/27 09:43:09;;;;;;;4.00;2.20;;;;;;;38.55;17.47;100482.22;5051950;28;20467;-67
2022/07/27 09:45:36;;;;;;;2.75;2.10;;;;;;;38.62;17.27;100485.16;5051185;28;20514;-68
2022/07/27 09:48:10;;;;;;;5.18;2.50;;;;;;;38.57;17.80;100485.44;5051379;28;20381;-68
2022/07/27 09:50:40;;;;;;;4.72;2.75;;;;;;;38.65;18.30;100478.09;5051430;28;20408;-68
2022/07/27 09:53:23;;;;;;;2.40;2.20;;;;;;;38.67;18.14;100479.31;5047036;28;20465;-68
2022/07/27 09:56:12;;;;;;;8.95;2.67;;;;;;;38.74;17.89;100481.41;5051738;28;20896;-68
2022/07/27 09:58:45;;;;;;;3.50;2.97;;;;;;;38.76;18.41;100468.00;5049229;28;20789;-67
2022/07/27 10:01:20;;;;;;;2.80;2.50;;;;;;;38.71;18.01;100480.16;5050714;28;20404;-68
2022/07/27 10:03:47;;;;;;;4.95;2.75;;;;;;;38.72;18.27;100469.91;5048998;28;20501;-66
2022/07/27 10:06:13;;;;;;;4.80;2.60;;;;;;;38.65;18.21;100467.81;5051145;28;20493;-67
2022/07/27 10:08:42;;;;;;;5.00;2.80;;;;;;;38.72;18.32;100467.94;5052948;28;20400;-67
2022/07/27 10:11:08;;;;;;;7.57;2.50;;;;;;;38.82;18.28;100463.75;5050993;28;20381;-68
2022/07/27 10:13:34;;;;;;;4.80;2.60;;;;;;;38.74;18.42;100464.81;5082779;28;20399;-67
2022/07/27 10:16:03;;;;;;;4.88;3.38;;;;;;;38.77;18.21;100464.03;5050753;28;20395;-68
2022/07/27 10:18:55;;;;;;;5.20;2.23;;;;;;;38.70;17.28;100469.44;5050675;28;20389;-67
2022/07/27 10:21:23;;;;;;;5.23;2.20;;;;;;;38.60;17.07;100468.09;5041298;28;20389;-67
2022/07/27 10:24:01;;;;;;;3.50;2.33;;;;;;;38.61;17.30;100461.41;5051024;28;20377;-67
2022/07/27 10:26:31;;;;;;;4.03;2.60;;;;;;;38.66;17.38;100451.97;5050696;28;20396;-67
2022/07/27 10:29:00;;;;;;;5.20;2.72;;;;;;;38.63;17.90;100461.84;5049668;28;20395;-69
2022/07/27 10:31:37;;;;;;;3.05;2.63;;;;;;;38.59;17.63;100463.72;5047591;28;20928;-68
2022/07/27 10:34:05;;;;;;;5.00;2.45;;;;;;;38.61;17.01;100442.81;5048132;28;20396;-68
2022/07/27 10:36:31;;;;;;;2.53;2.10;;;;;;;38.68;16.26;100460.72;5046814;28;20377;-68
2022/07/27 10:38:59;;;;;;;2.60;2.40;;;;;;;38.59;16.99;100456.22;5049553;28;20391;-68
2022/07/27 10:41:31;;;;;;;3.10;2.58;;;;;;;38.65;17.66;100448.41;5048817;28;20890;-67
2022/07/27 10:44:25;;;;;;;2.72;2.53;;;;;;;38.69;17.94;100443.72;5049380;28;20487;-68
2022/07/27 10:47:47;;;;;;;3.13;2.80;;;;;;;38.71;17.71;100448.91;5046725;28;20475;-69
2022/07/27 10:50:16;;;;;;;4.55;3.35;;;;;;;38.72;18.32;100444.97;5043566;28;20467;-69
2022/07/27 10:52:54;;;;;;;6.03;2.97;;;;;;;38.69;18.35;100435.41;5036897;28;20553;-69
2022/07/27 10:55:28;;;;;;;2.97;2.72;;;;;;;38.75;18.24;100441.44;5026727;28;20383;-68
2022/07/27 10:58:03;;;;;;;3.40;3.10;;;;;;;38.66;18.15;100440.91;5026531;28;20384;-69
2022/07/27 11:00:50;;;;;;;3.30;3.00;;;;;;;38.73;17.76;100427.16;5031469;28;20419;-69
2022/07/27 11:03:29;;;;;;;3.40;3.10;;;;;;;38.70;18.12;100439.81;5027962;28;20420;-69
2022/07/27 11:06:07;;;;;;;4.40;2.83;;;;;;;38.70;18.12;100437.03;5032357;28;20426;-69
2022/07/27 11:08:38;;;;;;;3.60;3.30;;;;;;;38.67;18.21;100437.75;5036537;28;20403;-69
2022/07/27 11:11:05;;;;;;;3.60;3.20;;;;;;;38.56;18.39;100432.03;5043993;28;20465;-69
2022/07/27 11:13:33;;;;;;;3.80;3.50;;;;;;;38.55;18.28;100430.38;5041820;28;20783;-69
2022/07/27 11:16:00;;;;;;;3.78;3.40;;;;;;;38.58;18.43;100431.66;5044153;28;20476;-69
2022/07/27 11:18:27;;;;;;;4.40;4.00;;;;;;;38.57;18.79;100430.88;5040444;28;20433;-68
2022/07/27 11:21:11;;;;;;;4.00;3.47;;;;;;;38.54;18.33;100434.34;5042966;28;20432;-70
2022/07/27 11:23:36;;;;;;;4.37;3.97;;;;;;;38.50;18.23;100424.34;5038572;28;20451;-69
2022/07/27 11:26:02;;;;;;;6.10;5.50;;;;;;;38.53;18.03;100418.09;5041043;28;20413;-68
2022/07/27 11:28:29;;;;;;;6.23;4.10;;;;;;;38.54;18.25;100417.72;5037987;28;20419;-70
2022/07/27 11:30:56;;;;;;;3.95;3.60;;;;;;;38.54;18.39;100417.72;5026192;28;20819;-70
2022/07/27 11:33:21;;;;;;;3.92;3.35;;;;;;;38.55;18.23;100415.75;5026044;28;20758;-69
2022/07/27 11:35:59;;;;;;;4.63;3.75;;;;;;;38.59;18.28;100414.69;5026096;28;20387;-69
2022/07/27 11:38:25;;;;;;;4.40;4.00;;;;;;;38.61;18.08;100400.47;5025430;28;20388;-68
2022/07/27 11:40:52;;;;;;;4.67;4.17;;;;;;;38.60;18.33;100404.38;5025792;28;20916;-68